Time;durP1;ratioP1;P1;durP2;ratioP2;P2;SDS_P1;SDS_P2;PMS_P1;PMS_P2;Temp;Humidity;BMP_temperature;BMP_pressure;BME280_temperature;BME280_humidity;BME280_pressure;Samples;Min_cycle;Max_cycle;Signal;HPM_P1;HPM_P2
2021/04/14 00:01:54;;;;;;;8.32;4.25;;;-0.50;99.90;;;;;;4976345;28;20061;-78
2021/04/14 00:04:21;;;;;;;8.20;4.43;;;-0.50;99.90;;;;;;4976090;28;20033;-77
2021/04/14 00:06:47;;;;;;;8.50;3.80;;;-0.50;99.90;;;;;;4958057;28;20472;-77
2021/04/14 00:09:13;;;;;;;8.93;4.53;;;-0.60;99.90;;;;;;4959231;28;20045;-78
2021/04/14 00:11:39;;;;;;;8.05;4.75;;;-0.50;99.90;;;;;;4981284;28;20027;-77
2021/04/14 00:14:08;;;;;;;7.03;4.70;;;-0.40;99.90;;;;;;4978266;28;20408;-78
2021/04/14 00:16:34;;;;;;;6.90;3.38;;;-0.60;99.90;;;;;;4975371;28;20038;-77
2021/04/14 00:19:01;;;;;;;8.40;3.80;;;-0.80;99.90;;;;;;4975106;28;20074;-77
2021/04/14 00:21:27;;;;;;;5.68;3.58;;;-0.90;99.90;;;;;;4988003;28;20030;-78
2021/04/14 00:23:55;;;;;;;7.72;3.75;;;-1.00;99.90;;;;;;4972797;28;20492;-78
2021/04/14 00:26:21;;;;;;;9.55;5.65;;;-0.90;99.90;;;;;;4975179;28;20042;-77
2021/04/14 00:28:48;;;;;;;8.20;5.88;;;-0.80;99.90;;;;;;4983944;28;20035;-77
2021/04/14 00:31:15;;;;;;;8.63;5.28;;;-0.70;99.90;;;;;;4975593;28;20046;-78
2021/04/14 00:33:42;;;;;;;10.18;4.85;;;-0.80;99.90;;;;;;4974899;28;20035;-78
2021/04/14 00:36:10;;;;;;;7.30;4.00;;;-0.70;99.90;;;;;;4958159;28;20050;-78
2021/04/14 00:38:37;;;;;;;6.63;4.05;;;-0.60;99.90;;;;;;4965980;28;20047;-78
2021/04/14 00:41:08;;;;;;;5.43;3.78;;;-0.70;99.90;;;;;;4975642;28;20468;-79
2021/04/14 00:43:36;;;;;;;5.78;3.50;;;-0.80;99.90;;;;;;4972521;28;20039;-77
2021/04/14 00:46:04;;;;;;;7.82;4.15;;;-0.90;99.90;;;;;;4942232;28;20034;-78
2021/04/14 00:48:31;;;;;;;8.93;4.57;;;-1.00;99.90;;;;;;4974758;28;20045;-78
2021/04/14 00:50:59;;;;;;;9.82;4.60;;;-0.90;99.90;;;;;;4971683;28;20050;-77
2021/04/14 00:53:27;;;;;;;11.10;4.30;;;-0.90;99.90;;;;;;4957744;28;20090;-78
2021/04/14 00:55:53;;;;;;;8.32;4.18;;;-0.90;99.90;;;;;;4974964;28;20031;-78
2021/04/14 00:58:20;;;;;;;8.20;3.65;;;-0.90;99.90;;;;;;4975103;28;20043;-77
2021/04/14 01:00:49;;;;;;;10.20;4.63;;;-1.10;99.90;;;;;;4974476;28;20057;-77
2021/04/14 01:03:35;;;;;;;7.10;4.03;;;-1.10;99.90;;;;;;4957923;28;20039;-77
2021/04/14 01:06:10;;;;;;;11.48;4.82;;;-1.20;99.90;;;;;;4981172;28;20087;-78
2021/04/14 01:08:37;;;;;;;6.30;4.20;;;-1.30;99.90;;;;;;4957020;28;20510;-78
2021/04/14 01:11:05;;;;;;;9.60;4.40;;;-1.30;99.90;;;;;;4959354;28;20045;-77
2021/04/14 01:13:31;;;;;;;6.80;4.63;;;-1.30;99.90;;;;;;4973952;28;20041;-78
2021/04/14 01:15:57;;;;;;;6.95;4.28;;;-1.30;99.90;;;;;;4957332;28;20042;-77
2021/04/14 01:18:36;;;;;;;8.77;3.78;;;-1.40;99.90;;;;;;4974447;28;20039;-79
2021/04/14 01:21:06;;;;;;;8.48;4.43;;;-1.30;99.90;;;;;;4957068;28;20515;-77
2021/04/14 01:23:32;;;;;;;7.75;5.00;;;-1.30;99.90;;;;;;4973742;28;20038;-77
2021/04/14 01:26:00;;;;;;;7.55;4.22;;;-1.40;99.90;;;;;;4983382;28;20111;-78
2021/04/14 01:28:30;;;;;;;7.35;4.65;;;-1.40;99.90;;;;;;4974406;28;20460;-79
2021/04/14 01:30:57;;;;;;;9.00;4.50;;;-1.40;99.90;;;;;;4981078;28;20037;-78
2021/04/14 01:33:26;;;;;;;7.45;5.00;;;-1.40;99.90;;;;;;4973825;28;20026;-77
2021/04/14 01:35:52;;;;;;;10.18;5.07;;;-1.40;99.90;;;;;;4974075;28;20491;-78
2021/04/14 01:38:19;;;;;;;9.43;4.93;;;-1.50;99.90;;;;;;4973916;28;20400;-78
2021/04/14 01:40:45;;;;;;;6.80;4.28;;;-1.50;99.90;;;;;;4972953;28;20046;-78
2021/04/14 01:43:12;;;;;;;10.23;5.38;;;-1.50;99.90;;;;;;4966962;28;20161;-77
2021/04/14 01:45:40;;;;;;;9.25;4.05;;;-1.50;99.90;;;;;;4956697;28;20384;-77
2021/04/14 01:48:08;;;;;;;12.00;5.00;;;-1.50;99.90;;;;;;4974244;28;20381;-78
2021/04/14 01:50:35;;;;;;;8.73;4.88;;;-1.50;99.90;;;;;;4991109;28;20128;-78
2021/04/14 01:53:04;;;;;;;9.02;4.65;;;-1.60;99.90;;;;;;4979432;28;20038;-78
2021/04/14 01:55:30;;;;;;;9.40;4.60;;;-1.70;99.90;;;;;;4988711;28;20030;-78
2021/04/14 01:57:58;;;;;;;10.13;5.47;;;-1.70;99.90;;;;;;4973996;28;20461;-78
2021/04/14 02:00:29;;;;;;;10.55;6.03;;;-1.70;99.90;;;;;;4972243;28;20046;-79
2021/04/14 02:02:56;;;;;;;9.80;6.18;;;-1.70;99.90;;;;;;4973818;28;20034;-78
2021/04/14 02:05:28;;;;;;;10.73;6.65;;;-1.70;99.90;;;;;;4987720;28;20030;-78
2021/04/14 02:07:55;;;;;;;11.25;6.25;;;-1.70;99.90;;;;;;4981328;28;20416;-78
2021/04/14 02:10:24;;;;;;;10.55;5.95;;;-1.70;99.90;;;;;;4941176;28;20059;-77
2021/04/14 02:12:51;;;;;;;11.75;6.45;;;-1.70;99.90;;;;;;4972786;28;20054;-77
2021/04/14 02:15:22;;;;;;;8.68;6.22;;;-1.70;99.90;;;;;;4973754;28;20030;-78
2021/04/14 02:17:48;;;;;;;10.40;6.60;;;-1.70;99.90;;;;;;4973389;28;20469;-78
2021/04/14 02:20:15;;;;;;;10.95;5.97;;;-1.70;99.90;;;;;;4973572;28;20054;-77
2021/04/14 02:22:42;;;;;;;12.60;6.45;;;-1.70;99.90;;;;;;4970367;28;20464;-78
2021/04/14 02:25:10;;;;;;;17.40;7.47;;;-1.70;99.90;;;;;;4973117;28;20051;-78
2021/04/14 02:27:37;;;;;;;11.65;7.22;;;-1.70;99.90;;;;;;4973077;28;20392;-79
2021/04/14 02:30:09;;;;;;;11.85;7.43;;;-1.70;99.90;;;;;;4979674;28;20041;-78
2021/04/14 02:32:35;;;;;;;11.68;7.55;;;-1.70;99.90;;;;;;4985159;28;20468;-78
2021/04/14 02:35:03;;;;;;;12.35;6.90;;;-1.70;99.90;;;;;;4972615;28;20031;-77
2021/04/14 02:37:29;;;;;;;18.25;7.72;;;-1.70;99.90;;;;;;4972633;28;20027;-78
2021/04/14 02:39:55;;;;;;;13.73;7.50;;;-1.60;99.90;;;;;;4973182;28;20392;-77
2021/04/14 02:42:22;;;;;;;10.52;6.97;;;-1.60;99.90;;;;;;4973176;28;20035;-77
2021/04/14 02:44:48;;;;;;;10.80;6.40;;;-1.60;99.90;;;;;;4973302;28;20042;-78
2021/04/14 02:47:14;;;;;;;11.45;5.90;;;-1.60;99.90;;;;;;4964941;28;20054;-77
2021/04/14 02:49:40;;;;;;;9.85;7.03;;;-1.70;99.90;;;;;;4972655;28;20107;-78
2021/04/14 02:52:07;;;;;;;11.32;6.00;;;-1.70;99.90;;;;;;4984652;28;20043;-78
2021/04/14 02:54:33;;;;;;;9.15;6.43;;;-1.70;99.90;;;;;;4980682;28;20031;-78
2021/04/14 02:56:59;;;;;;;11.65;6.72;;;-1.70;99.90;;;;;;4973256;28;20057;-78
2021/04/14 02:59:25;;;;;;;13.60;7.50;;;-1.60;99.90;;;;;;4972727;28;20063;-78
2021/04/14 03:01:52;;;;;;;11.40;6.47;;;-1.50;99.90;;;;;;4974884;28;20039;-79
2021/04/14 03:04:19;;;;;;;10.05;6.35;;;-1.60;99.90;;;;;;4959884;28;20039;-79
2021/04/14 03:06:45;;;;;;;13.18;6.47;;;-1.70;99.90;;;;;;4959781;28;20491;-78
2021/04/14 03:09:11;;;;;;;10.73;7.13;;;-1.70;99.90;;;;;;4976987;28;20042;-77
2021/04/14 03:11:37;;;;;;;13.32;7.65;;;-1.70;99.90;;;;;;4976480;28;20046;-77
2021/04/14 03:14:04;;;;;;;16.38;8.75;;;-1.60;99.90;;;;;;4976268;28;20045;-78
2021/04/14 03:16:30;;;;;;;14.60;7.55;;;-1.50;99.90;;;;;;4976104;28;20031;-78
2021/04/14 03:18:56;;;;;;;11.85;8.20;;;-1.70;99.90;;;;;;4976548;28;20042;-78
2021/04/14 03:21:23;;;;;;;11.80;7.65;;;-1.80;99.90;;;;;;4976721;28;20457;-78
2021/04/14 03:23:49;;;;;;;16.00;9.48;;;-1.80;99.90;;;;;;4976293;28;20037;-77
2021/04/14 03:26:15;;;;;;;17.17;10.40;;;-1.80;99.90;;;;;;4973233;28;20073;-77
2021/04/14 03:28:41;;;;;;;19.00;10.77;;;-1.80;99.90;;;;;;4976203;28;20027;-77
2021/04/14 03:31:08;;;;;;;14.55;10.18;;;-1.70;99.90;;;;;;4977014;28;20042;-77
2021/04/14 03:33:35;;;;;;;14.60;11.13;;;-1.70;99.90;;;;;;4975952;28;20026;-78
2021/04/14 03:36:03;;;;;;;20.00;12.05;;;-1.60;99.90;;;;;;4990033;28;20031;-78
2021/04/14 03:38:29;;;;;;;17.90;11.45;;;-1.60;99.90;;;;;;4987274;28;20041;-78
2021/04/14 03:40:56;;;;;;;23.58;12.07;;;-1.40;99.90;;;;;;4987806;28;20418;-77
2021/04/14 03:43:22;;;;;;;21.45;11.80;;;-1.30;99.90;;;;;;4976104;28;20373;-77
2021/04/14 03:45:52;;;;;;;17.45;11.68;;;-1.20;99.90;;;;;;4984029;28;20483;-77
2021/04/14 03:48:18;;;;;;;18.15;11.48;;;-1.10;99.90;;;;;;4975589;28;20035;-78
2021/04/14 03:50:44;;;;;;;18.48;11.70;;;-1.00;99.90;;;;;;4975623;28;20038;-77
2021/04/14 03:53:32;;;;;;;15.88;10.25;;;-0.90;99.90;;;;;;4974123;28;20031;-77
2021/04/14 03:56:04;;;;;;;20.27;10.35;;;-0.80;99.90;;;;;;4984913;28;20487;-77
2021/04/14 03:58:32;;;;;;;18.17;10.65;;;-0.70;99.90;;;;;;4975481;28;20031;-78
2021/04/14 04:01:05;;;;;;;18.05;11.30;;;-0.60;99.90;;;;;;4974572;28;20039;-77
2021/04/14 04:03:31;;;;;;;15.07;10.23;;;-0.50;99.90;;;;;;4957964;28;20031;-78
2021/04/14 04:05:57;;;;;;;16.95;10.00;;;-0.40;99.90;;;;;;4964417;28;20046;-77
2021/04/14 04:08:24;;;;;;;15.45;10.00;;;-0.40;99.90;;;;;;4975795;28;20042;-77
2021/04/14 04:10:50;;;;;;;14.50;10.60;;;-0.30;99.90;;;;;;4986702;28;20050;-77
2021/04/14 04:13:17;;;;;;;17.25;9.13;;;-0.30;99.90;;;;;;4977694;28;20030;-76
2021/04/14 04:15:44;;;;;;;16.13;10.73;;;-0.20;99.90;;;;;;4957678;28;20039;-76
2021/04/14 04:18:11;;;;;;;13.57;9.02;;;-0.20;99.90;;;;;;4974589;28;20047;-77
2021/04/14 04:20:38;;;;;;;13.30;9.20;;;-0.20;99.90;;;;;;4975135;28;20043;-77
2021/04/14 04:23:05;;;;;;;12.93;9.15;;;-0.20;99.90;;;;;;4974642;28;20053;-77
2021/04/14 04:25:32;;;;;;;12.70;9.18;;;-0.10;99.90;;;;;;5008252;28;20403;-78
2021/04/14 04:27:59;;;;;;;17.60;10.60;;;-0.10;99.90;;;;;;4973514;28;20030;-77
2021/04/14 04:30:27;;;;;;;16.38;9.50;;;0.00;99.90;;;;;;4975692;28;20073;-77
2021/04/14 04:32:53;;;;;;;12.93;9.98;;;0.00;99.90;;;;;;4974376;28;20049;-78
2021/04/14 04:35:20;;;;;;;15.32;8.85;;;0.00;99.90;;;;;;4975490;28;20038;-77
2021/04/14 04:37:47;;;;;;;30.27;16.38;;;0.00;99.90;;;;;;4986737;28;20033;-77
2021/04/14 04:40:14;;;;;;;19.55;12.82;;;0.10;99.90;;;;;;4981268;28;20049;-77
2021/04/14 04:42:41;;;;;;;13.77;10.35;;;0.00;99.90;;;;;;4980542;28;20026;-77
2021/04/14 04:45:09;;;;;;;13.77;8.88;;;0.00;99.90;;;;;;4992517;28;20460;-78
2021/04/14 04:47:36;;;;;;;13.45;8.85;;;0.00;99.90;;;;;;4980138;28;20045;-78
2021/04/14 04:50:04;;;;;;;13.02;8.90;;;0.00;99.90;;;;;;4977689;28;20411;-77
2021/04/14 04:52:30;;;;;;;12.40;8.30;;;0.00;99.90;;;;;;4974371;28;20507;-78
2021/04/14 04:54:57;;;;;;;11.75;9.00;;;0.00;99.90;;;;;;4974800;28;20384;-77
2021/04/14 04:57:23;;;;;;;13.18;7.78;;;0.10;99.90;;;;;;4975093;28;20049;-77
2021/04/14 04:59:49;;;;;;;13.02;8.40;;;0.10;99.90;;;;;;4974625;28;20235;-78
2021/04/14 05:02:15;;;;;;;14.38;8.07;;;0.20;99.90;;;;;;4974706;28;20038;-78
2021/04/14 05:04:42;;;;;;;13.38;7.22;;;0.20;99.90;;;;;;4974157;28;20038;-77
2021/04/14 05:07:08;;;;;;;10.80;7.40;;;0.30;99.90;;;;;;4993725;28;20038;-76
2021/04/14 05:09:34;;;;;;;10.10;6.88;;;0.30;99.90;;;;;;4973897;28;20050;-79
2021/04/14 05:12:01;;;;;;;13.23;7.35;;;0.40;99.90;;;;;;4985519;28;20034;-79
2021/04/14 05:14:27;;;;;;;12.57;7.68;;;0.50;99.90;;;;;;4982130;28;20051;-78
2021/04/14 05:16:54;;;;;;;10.25;6.38;;;0.50;99.90;;;;;;4993339;28;20033;-79
2021/04/14 05:19:20;;;;;;;12.85;6.95;;;0.60;99.90;;;;;;4975887;28;20392;-80
2021/04/14 05:21:47;;;;;;;9.50;6.68;;;0.70;99.90;;;;;;4985719;28;20022;-80
2021/04/14 05:24:13;;;;;;;11.65;6.25;;;0.70;99.90;;;;;;4988406;28;20046;-80
2021/04/14 05:26:40;;;;;;;9.07;6.25;;;0.80;99.90;;;;;;4956592;28;20373;-77
2021/04/14 05:29:06;;;;;;;9.55;6.78;;;0.80;99.90;;;;;;4974555;28;20035;-77
2021/04/14 05:31:37;;;;;;;12.40;5.50;;;0.90;99.90;;;;;;4975682;28;20061;-78
2021/04/14 05:34:04;;;;;;;8.98;5.78;;;0.90;99.90;;;;;;4974812;28;20038;-78
2021/04/14 05:36:30;;;;;;;8.68;5.10;;;1.00;99.90;;;;;;4978479;28;20030;-80
2021/04/14 05:38:56;;;;;;;7.53;5.35;;;1.00;99.90;;;;;;4984721;28;20035;-79
2021/04/14 05:41:23;;;;;;;7.93;5.90;;;1.00;99.90;;;;;;4966445;28;20042;-79
2021/04/14 05:43:49;;;;;;;9.38;4.60;;;1.10;99.90;;;;;;4986337;28;20034;-78
2021/04/14 05:46:18;;;;;;;10.00;5.10;;;1.10;99.90;;;;;;4978024;28;20023;-78
2021/04/14 05:48:46;;;;;;;8.02;5.03;;;1.20;99.90;;;;;;4984365;28;20038;-78
2021/04/14 05:51:17;;;;;;;8.77;5.40;;;1.40;99.90;;;;;;4961732;28;20042;-79
2021/04/14 05:53:46;;;;;;;9.80;5.25;;;1.50;99.90;;;;;;4973973;28;20465;-80
2021/04/14 05:56:13;;;;;;;7.88;4.47;;;1.60;99.90;;;;;;4972923;28;20043;-81
2021/04/14 05:58:40;;;;;;;8.15;4.78;;;1.60;99.90;;;;;;4973433;28;20038;-81
2021/04/14 06:01:08;;;;;;;9.75;5.35;;;1.70;99.90;;;;;;4959288;28;20054;-81
2021/04/14 06:03:34;;;;;;;7.32;4.82;;;1.80;99.90;;;;;;4973508;28;20042;-80
2021/04/14 06:06:01;;;;;;;10.52;4.72;;;1.80;99.90;;;;;;4974013;28;20035;-84
2021/04/14 06:08:29;;;;;;;8.02;5.53;;;1.80;99.90;;;;;;4961359;28;20033;-79
2021/04/14 06:10:57;;;;;;;8.75;4.85;;;2.00;99.90;;;;;;4955672;28;20535;-81
2021/04/14 06:13:23;;;;;;;8.43;4.78;;;1.90;99.90;;;;;;4973557;28;20471;-80
2021/04/14 06:15:50;;;;;;;12.18;5.07;;;2.10;99.90;;;;;;4973204;28;20241;-79
2021/04/14 06:18:16;;;;;;;6.32;5.03;;;2.10;99.90;;;;;;4991815;28;20026;-80
2021/04/14 06:20:42;;;;;;;7.50;4.63;;;2.20;99.90;;;;;;4972847;28;20047;-79
2021/04/14 06:23:16;;;;;;;8.93;5.38;;;2.30;99.90;;;;;;4973566;28;20039;-79
2021/04/14 06:28:31;;;;;;;10.50;5.68;;;2.40;99.90;;;;;;4952130;28;20051;-79
2021/04/14 06:30:57;;;;;;;10.70;6.05;;;2.50;99.90;;;;;;4973634;28;20035;-78
2021/04/14 06:33:25;;;;;;;8.50;6.13;;;2.40;99.90;;;;;;4973656;28;20042;-79
2021/04/14 06:35:52;;;;;;;9.93;5.00;;;2.50;99.90;;;;;;4956870;28;20038;-78
2021/04/14 06:38:26;;;;;;;7.38;5.97;;;2.60;99.90;;;;;;4977719;28;20042;-79
2021/04/14 06:41:36;;;;;;;10.55;6.03;;;2.70;99.90;;;;;;4977164;28;20472;-78
2021/04/14 06:44:14;;;;;;;10.68;5.50;;;2.90;99.90;;;;;;4982168;28;20051;-78
2021/04/14 06:46:41;;;;;;;9.40;6.00;;;3.00;99.90;;;;;;4976172;28;20377;-78
2021/04/14 06:49:32;;;;;;;6.82;5.53;;;3.10;99.90;;;;;;4977322;28;20031;-79
2021/04/14 06:52:10;;;;;;;8.15;6.07;;;3.20;99.90;;;;;;4977015;28;20042;-79
2021/04/14 06:54:45;;;;;;;9.30;6.35;;;3.50;99.90;;;;;;4959673;28;20051;-78
2021/04/14 06:57:39;;;;;;;8.20;5.85;;;3.80;99.90;;;;;;4977968;28;20035;-78
2021/04/14 07:00:20;;;;;;;10.27;5.80;;;3.70;99.80;;;;;;4977341;28;20046;-80
2021/04/14 07:02:56;;;;;;;7.93;5.57;;;3.70;99.50;;;;;;4976344;28;20050;-77
2021/04/14 07:05:30;;;;;;;10.73;5.55;;;3.70;98.60;;;;;;4988204;28;20384;-81
2021/04/14 07:08:00;;;;;;;7.75;5.63;;;4.10;98.00;;;;;;4977044;28;20031;-81
2021/04/14 07:10:35;;;;;;;9.10;4.88;;;4.90;94.90;;;;;;4976940;28;20034;-79
2021/04/14 07:13:06;;;;;;;7.28;4.60;;;4.90;93.30;;;;;;4996488;28;20038;-79
2021/04/14 07:15:33;;;;;;;7.07;4.20;;;4.90;92.70;;;;;;4979623;28;20031;-79
2021/04/14 07:18:06;;;;;;;6.68;4.60;;;5.10;92.00;;;;;;4976775;28;20651;-80
2021/04/14 07:20:57;;;;;;;7.95;4.38;;;5.00;91.80;;;;;;4976598;28;20400;-80
2021/04/14 07:23:42;;;;;;;7.40;3.97;;;5.40;90.90;;;;;;4959618;28;20051;-79
2021/04/14 07:26:29;;;;;;;5.25;3.25;;;5.80;89.20;;;;;;4994158;28;20054;-79
2021/04/14 07:29:33;;;;;;;8.80;4.00;;;5.80;86.70;;;;;;4976563;28;20034;-78
2021/04/14 07:32:08;;;;;;;8.27;3.88;;;5.70;85.30;;;;;;4985948;28;20035;-80
2021/04/14 07:35:09;;;;;;;8.98;4.22;;;6.10;84.00;;;;;;4983749;28;20050;-79
2021/04/14 07:38:16;;;;;;;7.68;3.58;;;5.70;85.40;;;;;;4991558;28;20041;-78
2021/04/14 07:40:49;;;;;;;5.13;3.65;;;6.00;84.90;;;;;;4991094;28;20046;-78
2021/04/14 07:43:34;;;;;;;6.03;3.50;;;6.10;83.00;;;;;;4984644;28;20030;-78
2021/04/14 07:46:03;;;;;;;10.18;3.33;;;6.20;82.10;;;;;;4989787;28;20054;-79
2021/04/14 07:48:33;;;;;;;8.10;3.50;;;6.60;79.30;;;;;;4960328;28;20038;-79
2021/04/14 07:51:02;;;;;;;4.68;3.05;;;6.70;78.10;;;;;;4980593;28;20030;-80
2021/04/14 07:53:34;;;;;;;5.00;2.97;;;7.30;75.60;;;;;;4986753;28;20031;-79
2021/04/14 07:56:19;;;;;;;6.38;2.53;;;7.70;72.50;;;;;;4976371;28;20038;-80
2021/04/14 07:58:59;;;;;;;4.72;2.95;;;7.90;71.20;;;;;;4975399;28;20030;-79
2021/04/14 08:01:29;;;;;;;5.57;2.45;;;8.00;69.40;;;;;;4975849;28;20054;-79
2021/04/14 08:04:12;;;;;;;5.13;2.40;;;8.70;66.60;;;;;;4975650;28;20500;-77
2021/04/14 08:06:39;;;;;;;6.22;2.92;;;9.00;64.10;;;;;;4975647;28;20046;-78
2021/04/14 08:09:16;;;;;;;6.03;2.10;;;10.20;61.50;;;;;;4983585;28;20499;-79
2021/04/14 08:11:43;;;;;;;4.78;2.50;;;8.80;62.00;;;;;;4986287;28;20054;-79
2021/04/14 08:14:20;;;;;;;5.70;3.45;;;9.00;62.80;;;;;;4975862;28;20461;-78
2021/04/14 08:16:52;;;;;;;5.75;2.80;;;10.50;59.30;;;;;;4975413;28;20464;-79
2021/04/14 08:19:18;;;;;;;4.93;2.20;;;10.30;57.60;;;;;;4985685;28;20042;-79
2021/04/14 08:22:01;;;;;;;3.35;2.33;;;11.00;56.90;;;;;;4988797;28;20387;-80
2021/04/14 08:24:33;;;;;;;5.63;2.78;;;9.50;59.10;;;;;;4984775;28;20054;-79
2021/04/14 08:27:03;;;;;;;5.20;2.22;;;9.10;60.60;;;;;;4979837;28;20050;-81
2021/04/14 08:29:30;;;;;;;4.60;2.22;;;9.00;60.50;;;;;;4988774;28;20046;-81
2021/04/14 08:31:57;;;;;;;7.18;2.53;;;8.40;61.00;;;;;;4984420;28;20376;-79
2021/04/14 08:34:32;;;;;;;5.95;1.92;;;8.90;61.30;;;;;;4985625;28;20029;-79
2021/04/14 08:37:20;;;;;;;3.15;1.42;;;10.50;57.10;;;;;;4981119;28;20447;-79
2021/04/14 08:39:56;;;;;;;4.18;1.83;;;11.50;54.60;;;;;;4973608;28;20057;-79
2021/04/14 08:42:23;;;;;;;4.30;2.00;;;12.80;53.10;;;;;;4975371;28;20049;-79
2021/04/14 08:44:52;;;;;;;4.75;2.10;;;14.40;48.30;;;;;;4973990;28;20396;-80
2021/04/14 08:47:22;;;;;;;3.67;2.47;;;13.00;49.40;;;;;;4975224;28;20031;-80
2021/04/14 08:49:53;;;;;;;3.83;1.98;;;11.10;52.50;;;;;;4974854;28;20289;-80
2021/04/14 08:52:21;;;;;;;4.78;1.75;;;9.50;55.30;;;;;;4975645;28;20057;-79
2021/04/14 08:54:49;;;;;;;5.57;2.10;;;8.30;57.70;;;;;;4980286;28;20030;-79
2021/04/14 08:57:18;;;;;;;3.33;1.95;;;7.70;59.50;;;;;;4985309;28;20436;-78
2021/04/14 08:59:45;;;;;;;6.38;2.05;;;7.50;60.50;;;;;;4974275;28;20043;-80
2021/04/14 09:02:15;;;;;;;6.53;2.08;;;7.30;61.00;;;;;;4974540;28;20057;-79
2021/04/14 09:04:46;;;;;;;4.17;1.73;;;6.90;62.20;;;;;;4974905;28;20050;-80
2021/04/14 09:07:23;;;;;;;6.18;1.90;;;6.90;61.90;;;;;;4993967;28;20034;-77
2021/04/14 09:09:51;;;;;;;6.15;2.20;;;6.90;62.10;;;;;;4980700;28;20050;-79
2021/04/14 09:12:18;;;;;;;2.95;2.17;;;6.90;63.00;;;;;;4974811;28;20042;-79
2021/04/14 09:14:44;;;;;;;4.93;2.42;;;6.80;63.50;;;;;;4974421;28;20369;-79
2021/04/14 09:17:13;;;;;;;4.90;2.42;;;6.70;63.50;;;;;;4988628;28;20030;-80
2021/04/14 09:19:46;;;;;;;5.78;2.65;;;6.60;63.90;;;;;;4977634;28;20026;-80
2021/04/14 09:22:13;;;;;;;4.18;2.30;;;6.50;63.20;;;;;;4975088;28;20039;-82
2021/04/14 09:24:56;;;;;;;3.67;2.13;;;6.40;62.80;;;;;;4974529;28;20042;-80
2021/04/14 09:27:38;;;;;;;6.85;2.25;;;6.50;63.00;;;;;;4955971;28;20039;-79
2021/04/14 09:31:03;;;;;;;4.30;2.13;;;6.70;62.30;;;;;;4958240;28;20499;-78
2021/04/14 09:33:52;;;;;;;5.68;2.85;;;6.90;61.60;;;;;;4956515;28;20050;-79
2021/04/14 09:36:31;;;;;;;5.68;2.20;;;7.10;61.00;;;;;;4942439;28;20050;-79
2021/04/14 09:39:31;;;;;;;4.53;2.00;;;7.20;60.80;;;;;;4974051;28;20031;-78
2021/04/14 09:41:58;;;;;;;9.68;4.35;;;7.40;59.80;;;;;;4938472;29;20058;-79
2021/04/14 09:44:38;;;;;;;7.32;6.13;;;7.30;58.40;;;;;;4964953;28;20038;-79
2021/04/14 09:47:30;;;;;;;5.47;2.63;;;7.40;58.20;;;;;;4974180;28;20034;-79
2021/04/14 09:50:18;;;;;;;7.82;4.53;;;7.60;57.10;;;;;;4973506;28;20034;-79
2021/04/14 09:52:52;;;;;;;5.85;1.95;;;8.00;55.20;;;;;;4972508;28;20039;-79
2021/04/14 09:55:19;;;;;;;1.77;1.30;;;8.20;54.20;;;;;;4973183;28;20035;-78
2021/04/14 09:57:47;;;;;;;4.68;1.50;;;8.70;53.90;;;;;;4973000;28;20038;-80
2021/04/14 10:00:26;;;;;;;4.47;1.67;;;8.60;54.50;;;;;;4944120;28;20042;-80
2021/04/14 10:02:56;;;;;;;3.03;1.33;;;9.30;52.10;;;;;;4955994;28;20039;-78
2021/04/14 10:05:30;;;;;;;5.13;2.20;;;8.50;53.00;;;;;;4973171;28;20042;-79
2021/04/14 10:08:01;;;;;;;3.35;1.42;;;8.20;54.30;;;;;;4973205;28;20027;-80
2021/04/14 10:10:27;;;;;;;;;;;7.90;53.40;;;;;;4972998;28;20038;-81
2021/04/14 10:12:53;;;;;;;3.25;1.27;;;7.80;53.70;;;;;;4972846;28;19910;-80
2021/04/14 10:15:39;;;;;;;8.60;1.20;;;7.80;52.80;;;;;;4973704;28;20035;-79
2021/04/14 10:18:07;;;;;;;3.55;1.52;;;7.90;53.00;;;;;;4973653;28;20031;-79
2021/04/14 10:20:36;;;;;;;2.83;1.00;;;8.00;52.80;;;;;;4972597;28;20045;-79
2021/04/14 10:23:10;;;;;;;5.68;1.38;;;7.80;53.30;;;;;;4973351;28;20031;-80
2021/04/14 10:25:40;;;;;;;4.68;1.38;;;7.60;53.90;;;;;;4972732;28;20051;-78
2021/04/14 10:28:27;;;;;;;1.92;0.98;;;8.00;53.10;;;;;;4973629;28;20457;-79
2021/04/14 10:31:08;;;;;;;3.53;1.13;;;8.60;52.70;;;;;;4973445;28;20033;-79
2021/04/14 10:33:39;;;;;;;3.58;1.13;;;9.20;51.40;;;;;;4976114;28;20034;-78
2021/04/14 10:36:32;;;;;;;2.40;1.55;;;9.20;48.90;;;;;;4987107;28;20054;-79
2021/04/14 10:39:26;;;;;;;3.13;1.27;;;9.40;49.60;;;;;;4973206;28;20055;-80
2021/04/14 10:41:54;;;;;;;4.53;1.83;;;9.30;48.20;;;;;;4984126;28;20058;-78
2021/04/14 10:44:31;;;;;;;3.75;1.10;;;9.10;48.20;;;;;;4974397;28;20054;-78
2021/04/14 10:47:33;;;;;;;5.43;1.00;;;9.40;48.60;;;;;;4961039;28;20065;-78
2021/04/14 10:50:29;;;;;;;6.93;1.48;;;9.40;47.40;;;;;;4951711;28;20050;-79
2021/04/14 10:53:02;;;;;;;3.90;1.00;;;9.10;48.10;;;;;;4957479;28;20051;-79
2021/04/14 10:55:35;;;;;;;3.47;1.05;;;9.00;49.30;;;;;;4976577;28;20030;-81
2021/04/14 10:58:04;;;;;;;2.22;0.75;;;8.70;48.50;;;;;;4978628;28;20051;-79
2021/04/14 11:00:40;;;;;;;2.10;0.88;;;8.60;48.90;;;;;;4973809;28;20035;-80
2021/04/14 11:03:10;;;;;;;3.85;1.00;;;8.70;48.60;;;;;;4973872;28;20399;-80
2021/04/14 11:05:39;;;;;;;4.03;1.15;;;8.90;48.80;;;;;;4973117;28;20038;-80
2021/04/14 11:08:08;;;;;;;3.92;1.20;;;8.80;48.70;;;;;;4974207;28;20046;-79
2021/04/14 11:10:37;;;;;;;4.25;0.95;;;8.70;49.30;;;;;;4980446;28;20507;-79
2021/04/14 11:13:06;;;;;;;2.78;0.80;;;8.90;49.00;;;;;;4972479;28;20047;-80
2021/04/14 11:15:40;;;;;;;2.38;0.93;;;8.80;49.00;;;;;;4956691;28;20019;-80
2021/04/14 11:18:09;;;;;;;3.63;1.15;;;9.10;48.40;;;;;;4974061;28;20380;-79
2021/04/14 11:20:49;;;;;;;3.53;0.90;;;8.80;46.80;;;;;;4955948;28;20049;-80
2021/04/14 11:23:16;;;;;;;3.10;1.30;;;8.40;46.90;;;;;;4976297;28;20488;-81
2021/04/14 11:25:43;;;;;;;2.55;1.10;;;8.40;46.30;;;;;;4976431;28;20392;-78
2021/04/14 11:28:14;;;;;;;6.22;1.20;;;9.00;46.20;;;;;;4995881;28;20057;-79
2021/04/14 11:30:51;;;;;;;2.65;1.00;;;9.60;45.10;;;;;;4978732;28;20036;-79
2021/04/14 11:33:20;;;;;;;13.13;8.00;;;9.60;44.90;;;;;;4977901;28;20404;-79
2021/04/14 11:35:51;;;;;;;8.50;4.63;;;9.60;43.50;;;;;;4988881;28;20038;-80
2021/04/14 11:38:27;;;;;;;;;;;9.20;44.40;;;;;;4981847;28;20031;-81
2021/04/14 11:40:54;;;;;;;2.63;1.45;;;8.80;44.70;;;;;;4986967;28;19920;-80
2021/04/14 11:43:37;;;;;;;3.65;1.00;;;9.00;44.80;;;;;;4978191;28;20053;-80
2021/04/14 11:46:34;;;;;;;3.50;1.50;;;9.30;44.80;;;;;;4980183;28;20042;-80
2021/04/14 11:49:04;;;;;;;2.90;0.80;;;9.30;44.70;;;;;;4980672;28;20023;-79
2021/04/14 11:51:30;;;;;;;2.30;1.35;;;9.30;44.60;;;;;;4980559;28;20034;-80
2021/04/14 11:54:21;;;;;;;1.98;1.25;;;9.40;44.90;;;;;;4979089;28;20380;-79
2021/04/14 11:57:24;;;;;;;2.83;1.10;;;8.80;44.90;;;;;;4978284;28;20146;-81
2021/04/14 12:00:28;;;;;;;3.67;1.05;;;8.80;45.40;;;;;;4977421;28;20051;-80
2021/04/14 12:03:00;;;;;;;1.90;0.80;;;8.40;44.90;;;;;;4976348;28;20065;-80
2021/04/14 12:05:27;;;;;;;2.92;1.35;;;8.20;44.60;;;;;;4960867;28;20039;-80
2021/04/14 12:07:53;;;;;;;3.47;0.95;;;8.20;44.80;;;;;;4976977;28;20038;-80
2021/04/14 12:10:20;;;;;;;2.30;0.90;;;8.40;45.00;;;;;;4960983;28;20042;-80
2021/04/14 12:12:48;;;;;;;5.78;1.98;;;8.70;44.30;;;;;;4976182;28;20407;-80
2021/04/14 12:15:16;;;;;;;3.60;1.30;;;8.70;43.90;;;;;;4977636;28;20034;-79
2021/04/14 12:17:43;;;;;;;3.15;0.93;;;9.00;43.60;;;;;;4976699;28;20034;-79
2021/04/14 12:20:11;;;;;;;3.13;1.02;;;8.90;43.50;;;;;;4976368;28;20042;-80
2021/04/14 12:22:37;;;;;;;3.53;3.00;;;8.80;43.40;;;;;;4975737;28;20061;-79
2021/04/14 12:25:04;;;;;;;3.20;1.17;;;8.80;43.20;;;;;;4976541;28;20050;-79
2021/04/14 12:27:30;;;;;;;3.97;2.58;;;9.00;42.60;;;;;;4991858;28;20042;-80
2021/04/14 12:29:57;;;;;;;3.85;0.90;;;9.00;42.30;;;;;;4987899;28;20031;-80
2021/04/14 12:32:24;;;;;;;3.70;0.90;;;9.10;43.70;;;;;;4992100;28;20030;-79
2021/04/14 12:34:50;;;;;;;2.75;0.80;;;9.00;42.80;;;;;;4998125;28;20034;-78
2021/04/14 12:37:16;;;;;;;3.05;0.98;;;9.20;42.00;;;;;;4986702;28;20033;-80
2021/04/14 12:39:43;;;;;;;2.88;0.90;;;9.70;40.70;;;;;;4980492;28;20035;-79
2021/04/14 12:42:10;;;;;;;3.42;1.15;;;9.70;40.50;;;;;;4976277;28;20470;-80
2021/04/14 12:44:36;;;;;;;6.00;0.98;;;9.70;40.20;;;;;;4990319;28;20045;-78
2021/04/14 12:47:10;;;;;;;3.13;0.88;;;9.90;40.50;;;;;;4979122;28;20043;-80
2021/04/14 12:49:41;;;;;;;3.35;1.02;;;9.80;41.50;;;;;;4962537;28;20042;-78
2021/04/14 12:52:17;;;;;;;5.63;1.08;;;10.20;41.50;;;;;;4980630;28;20408;-79
2021/04/14 12:54:43;;;;;;;3.53;0.85;;;10.10;42.40;;;;;;4972886;28;20042;-80
2021/04/14 12:57:21;;;;;;;2.15;0.90;;;10.20;42.10;;;;;;4985388;28;20031;-80
2021/04/14 13:00:07;;;;;;;2.88;1.33;;;9.70;42.40;;;;;;4980540;28;20043;-80
2021/04/14 13:02:44;;;;;;;2.33;1.05;;;9.40;42.30;;;;;;4963519;28;20396;-79
2021/04/14 13:05:13;;;;;;;3.00;1.30;;;9.30;41.80;;;;;;4988801;28;20026;-79
2021/04/14 13:07:47;;;;;;;2.38;0.80;;;9.00;41.80;;;;;;4990492;28;20026;-79
2021/04/14 13:10:15;;;;;;;3.42;0.80;;;9.00;42.30;;;;;;4981219;28;20050;-79
2021/04/14 13:12:41;;;;;;;3.65;1.02;;;9.20;42.40;;;;;;4980961;28;20026;-80
2021/04/14 13:15:12;;;;;;;2.72;1.52;;;9.10;42.10;;;;;;4980944;28;20035;-80